createdAt,value
2017-05-04T00:01:01.747Z,29.02
2017-05-04T00:03:29.353Z,28.75
2017-05-04T00:05:57.248Z,29.40
2017-05-04T00:08:25.314Z,31.50
2017-05-04T00:10:53.258Z,30.85
2017-05-04T00:13:20.827Z,31.47
2017-05-04T00:15:48.880Z,33.22
2017-05-04T00:18:16.779Z,33.15
2017-05-04T00:20:45.307Z,32.83
2017-05-04T00:23:12.962Z,31.52
2017-05-04T00:25:40.851Z,31.43
2017-05-04T00:28:09.053Z,31.17
2017-05-04T00:30:36.789Z,34.85
2017-05-04T00:33:04.954Z,32.70
2017-05-04T00:35:32.936Z,33.20
2017-05-04T00:38:00.851Z,32.43
2017-05-04T00:40:28.936Z,31.97
2017-05-04T00:42:57.040Z,31.17
2017-05-04T00:45:25.105Z,31.60
2017-05-04T00:47:53.020Z,32.00
2017-05-04T00:50:20.893Z,32.08
2017-05-04T00:52:49.071Z,31.67
2017-05-04T00:55:17.266Z,32.10
2017-05-04T00:57:45.520Z,32.90
2017-05-04T01:00:13.407Z,33.87
2017-05-04T01:02:40.953Z,34.55
2017-05-04T01:05:09.056Z,35.27
2017-05-04T01:07:37.653Z,35.18
2017-05-04T01:10:05.584Z,35.07
2017-05-04T01:12:33.505Z,31.83
2017-05-04T01:15:02.237Z,33.23
2017-05-04T01:17:29.844Z,30.43
2017-05-04T01:19:57.715Z,31.35
2017-05-04T01:22:25.212Z,32.90
2017-05-04T01:24:53.088Z,29.80
2017-05-04T01:27:20.612Z,33.32
2017-05-04T01:29:48.096Z,31.97
2017-05-04T01:32:15.993Z,33.62
2017-05-04T01:34:43.469Z,32.12
2017-05-04T01:37:10.963Z,35.03
2017-05-04T01:39:38.836Z,33.22
2017-05-04T01:42:06.728Z,32.78
2017-05-04T01:44:34.602Z,33.17
2017-05-04T01:47:02.100Z,33.68
2017-05-04T01:49:30.030Z,35.78
2017-05-04T01:51:57.535Z,33.72
2017-05-04T01:54:25.405Z,36.43
2017-05-04T01:56:53.452Z,34.47
2017-05-04T01:59:21.341Z,37.18
2017-05-04T02:01:49.219Z,36.62
2017-05-04T02:04:16.714Z,35.57
2017-05-04T02:06:44.596Z,34.83
2017-05-04T02:09:12.860Z,36.23
2017-05-04T02:11:40.728Z,34.18
2017-05-04T02:14:08.974Z,36.12
2017-05-04T02:16:36.850Z,38.65
2017-05-04T02:19:04.339Z,37.90
2017-05-04T02:21:31.804Z,37.97
2017-05-04T02:23:59.288Z,37.82
2017-05-04T02:26:27.224Z,37.33
2017-05-04T02:28:55.086Z,35.77
2017-05-04T02:31:23.279Z,36.87
2017-05-04T02:33:50.769Z,37.73
2017-05-04T02:36:18.633Z,37.18
2017-05-04T02:38:46.119Z,38.58
2017-05-04T02:41:13.583Z,38.12
2017-05-04T02:43:41.071Z,38.90
2017-05-04T02:46:08.538Z,37.65
2017-05-04T02:48:36.025Z,38.62
2017-05-04T02:51:03.887Z,39.78
2017-05-04T02:53:31.770Z,39.12
2017-05-04T02:55:59.763Z,39.82
2017-05-04T02:58:27.644Z,40.37
2017-05-04T03:00:55.115Z,37.15
2017-05-04T03:03:22.995Z,40.62
2017-05-04T03:05:50.854Z,40.38
2017-05-04T03:08:18.735Z,39.92
2017-05-04T03:10:46.608Z,38.05
2017-05-04T03:13:14.488Z,38.53
2017-05-04T03:15:42.347Z,39.67
2017-05-04T03:18:10.222Z,40.35
2017-05-04T03:20:38.079Z,42.30
2017-05-04T03:23:05.955Z,42.57
2017-05-04T03:25:33.851Z,40.72
2017-05-04T03:28:01.731Z,40.95
2017-05-04T03:30:29.591Z,40.72
2017-05-04T03:32:57.457Z,40.03
2017-05-04T03:35:24.943Z,39.55
2017-05-04T03:37:52.823Z,41.62
2017-05-04T03:40:20.287Z,40.00
2017-05-04T03:42:48.163Z,42.32
2017-05-04T03:45:15.627Z,43.37
2017-05-04T03:47:43.504Z,42.27
2017-05-04T03:50:11.364Z,44.20
2017-05-04T03:52:39.253Z,45.67
2017-05-04T03:55:06.930Z,45.05
2017-05-04T03:57:34.822Z,45.83
2017-05-04T04:00:02.703Z,44.08
2017-05-04T04:02:30.593Z,46.58
2017-05-04T04:04:58.463Z,45.10
2017-05-04T04:07:26.355Z,41.95
2017-05-04T04:09:54.600Z,42.88
2017-05-04T04:12:22.497Z,40.85
2017-05-04T04:14:50.368Z,41.08
2017-05-04T04:17:18.464Z,40.42
2017-05-04T04:19:46.345Z,42.30
2017-05-04T04:22:14.236Z,42.95
2017-05-04T04:24:42.109Z,41.57
2017-05-04T04:27:10.000Z,42.20
2017-05-04T04:29:37.480Z,40.97
2017-05-04T04:32:05.352Z,42.80
2017-05-04T04:34:32.844Z,42.37
2017-05-04T04:37:00.723Z,41.37
2017-05-04T04:39:28.589Z,42.80
2017-05-04T04:41:56.474Z,41.07
2017-05-04T04:44:24.709Z,43.10
2017-05-04T04:46:52.594Z,44.68
2017-05-04T04:49:20.455Z,41.73
2017-05-04T04:51:48.331Z,40.43
2017-05-04T04:54:16.200Z,40.42
2017-05-04T04:56:44.079Z,38.45
2017-05-04T04:59:11.947Z,41.15
2017-05-04T05:01:39.828Z,42.07
2017-05-04T05:04:07.291Z,42.47
2017-05-04T05:06:34.775Z,40.20
2017-05-04T05:09:02.643Z,42.85
2017-05-04T05:11:30.520Z,41.67
2017-05-04T05:13:58.383Z,41.75
2017-05-04T05:16:26.290Z,42.52
2017-05-04T05:18:54.171Z,44.58
2017-05-04T05:21:21.651Z,43.18
2017-05-04T05:23:49.125Z,43.28
2017-05-04T05:26:17.002Z,42.75
2017-05-04T05:28:44.869Z,43.33
2017-05-04T05:31:12.351Z,44.85
2017-05-04T05:33:40.214Z,42.35
2017-05-04T05:36:07.691Z,41.43
2017-05-04T05:38:35.576Z,41.77
2017-05-04T05:41:03.062Z,43.28
2017-05-04T05:43:30.923Z,42.80
2017-05-04T05:45:58.551Z,42.83
2017-05-04T05:48:26.024Z,42.82
2017-05-04T05:50:53.904Z,41.60
2017-05-04T05:53:21.375Z,44.07
2017-05-04T05:55:48.867Z,43.52
2017-05-04T05:58:16.732Z,44.95
2017-05-04T06:00:44.604Z,45.77
2017-05-04T06:03:12.847Z,43.35
2017-05-04T06:05:40.740Z,44.17
2017-05-04T06:08:08.610Z,48.25
2017-05-04T06:10:36.501Z,49.88
2017-05-04T06:13:04.380Z,49.12
2017-05-04T06:15:32.009Z,48.32
2017-05-04T06:17:59.910Z,45.93
2017-05-04T06:20:27.398Z,46.38
2017-05-04T06:22:55.274Z,48.17
2017-05-04T06:25:23.154Z,48.70
2017-05-04T06:27:51.015Z,50.63
2017-05-04T06:30:18.903Z,47.55
2017-05-04T06:32:46.780Z,47.82
2017-05-04T06:35:14.263Z,46.58
2017-05-04T06:37:41.732Z,51.28
2017-05-04T06:40:09.590Z,44.52
2017-05-04T06:42:37.470Z,44.65
2017-05-04T06:45:05.355Z,45.85
2017-05-04T06:47:33.291Z,45.88
2017-05-04T06:50:01.372Z,47.43
2017-05-04T06:52:29.247Z,49.30
2017-05-04T06:54:57.145Z,48.08
2017-05-04T06:57:25.241Z,46.95
2017-05-04T06:59:54.460Z,51.40
2017-05-04T07:02:21.946Z,47.75
2017-05-04T07:04:49.831Z,47.52
2017-05-04T07:07:17.829Z,45.73
2017-05-04T07:09:45.313Z,46.62
2017-05-04T07:12:13.175Z,43.50
2017-05-04T07:14:40.661Z,45.27
2017-05-04T07:17:08.528Z,49.02
2017-05-04T07:19:36.411Z,48.00
2017-05-04T07:22:04.667Z,46.82
2017-05-04T07:24:32.543Z,48.60
2017-05-04T07:27:00.402Z,48.90
2017-05-04T07:29:28.285Z,50.38
2017-05-04T07:31:56.147Z,50.08
2017-05-04T07:34:23.631Z,48.08
2017-05-04T07:36:51.903Z,57.12
2017-05-04T07:39:19.367Z,54.75
2017-05-04T07:41:46.864Z,50.22
2017-05-04T07:44:14.332Z,46.60
2017-05-04T07:46:42.215Z,48.62
2017-05-04T07:49:10.074Z,46.42
2017-05-04T07:51:37.555Z,46.57
2017-05-04T07:54:05.786Z,46.33
2017-05-04T07:56:33.685Z,45.82
2017-05-04T07:59:01.559Z,46.30
2017-05-04T08:01:29.435Z,47.32
2017-05-04T08:03:56.899Z,45.17
2017-05-04T08:06:24.783Z,42.68
2017-05-04T08:08:52.647Z,43.73
2017-05-04T08:11:20.130Z,43.70
2017-05-04T08:13:47.995Z,44.35
2017-05-04T08:16:15.876Z,42.20
2017-05-04T08:18:43.763Z,45.33
2017-05-04T08:21:11.244Z,42.65
2017-05-04T08:23:39.101Z,40.80
2017-05-04T08:26:07.415Z,41.20
2017-05-04T08:28:35.267Z,42.20
2017-05-04T08:31:03.147Z,40.32
2017-05-04T08:33:30.688Z,41.95
2017-05-04T08:35:58.807Z,41.82
2017-05-04T08:38:26.671Z,41.42
2017-05-04T08:40:54.975Z,42.00
2017-05-04T08:43:22.845Z,40.72
2017-05-04T08:45:50.724Z,42.58
2017-05-04T08:48:18.213Z,41.78
2017-05-04T08:50:46.078Z,40.45
2017-05-04T08:53:13.959Z,41.55
2017-05-04T08:55:41.464Z,38.63
2017-05-04T08:58:09.336Z,40.07
2017-05-04T09:00:37.216Z,41.42
2017-05-04T09:03:05.078Z,39.10
2017-05-04T09:05:32.641Z,41.20
2017-05-04T09:08:00.515Z,39.47
2017-05-04T09:10:28.007Z,38.73
2017-05-04T09:12:55.877Z,41.02
2017-05-04T09:15:23.753Z,36.60
2017-05-04T09:17:51.620Z,38.32
2017-05-04T09:20:19.498Z,38.50
2017-05-04T09:22:47.360Z,40.52
2017-05-04T09:25:15.223Z,34.93
2017-05-04T09:27:43.104Z,37.75
2017-05-04T09:30:10.963Z,38.27
2017-05-04T09:32:38.445Z,38.60
2017-05-04T09:35:06.686Z,37.88
2017-05-04T09:37:34.546Z,36.05
2017-05-04T09:40:02.407Z,34.90
2017-05-04T09:42:30.283Z,34.60
2017-05-04T09:44:58.162Z,35.60
2017-05-04T09:47:26.045Z,37.70
2017-05-04T09:49:53.527Z,37.15
2017-05-04T09:52:21.514Z,38.48
2017-05-04T09:54:48.998Z,37.32
2017-05-04T09:57:16.891Z,37.45
2017-05-04T09:59:44.772Z,38.10
2017-05-04T10:02:12.248Z,39.53
2017-05-04T10:04:39.748Z,38.62
2017-05-04T10:07:07.611Z,39.92
2017-05-04T10:09:35.603Z,37.57
2017-05-04T10:12:03.472Z,38.42
2017-05-04T10:14:31.382Z,38.22
2017-05-04T10:16:58.864Z,39.70
2017-05-04T10:19:26.752Z,41.17
2017-05-04T10:21:55.965Z,40.08
2017-05-04T10:24:23.843Z,37.40
2017-05-04T10:26:51.907Z,36.60
2017-05-04T10:29:19.790Z,38.30
2017-05-04T10:31:47.263Z,36.30
2017-05-04T10:34:14.758Z,37.37
2017-05-04T10:36:42.653Z,39.13
2017-05-04T10:39:10.539Z,37.23
2017-05-04T10:41:38.409Z,37.82
2017-05-04T10:44:06.283Z,37.57
2017-05-04T10:46:34.180Z,38.58
2017-05-04T10:49:02.074Z,36.08
2017-05-04T10:51:29.965Z,38.13
2017-05-04T10:53:57.859Z,40.28
2017-05-04T10:56:25.379Z,43.32
2017-05-04T10:58:53.265Z,44.85
2017-05-04T11:01:20.785Z,45.38
2017-05-04T11:03:48.686Z,46.15
2017-05-04T11:06:16.574Z,47.33
2017-05-04T11:08:44.061Z,54.13
2017-05-04T11:11:11.967Z,49.60
2017-05-04T11:13:39.456Z,53.68
2017-05-04T11:16:06.927Z,51.03
2017-05-04T11:18:35.225Z,50.92
2017-05-04T11:21:03.147Z,52.47
2017-05-04T11:23:31.027Z,51.03
2017-05-04T11:25:59.050Z,53.12
2017-05-04T11:28:27.304Z,46.78
2017-05-04T11:30:55.207Z,46.63
2017-05-04T11:33:23.113Z,43.28
2017-05-04T11:35:54.033Z,45.13
2017-05-04T11:38:23.557Z,44.40
2017-05-04T11:40:53.187Z,42.57
2017-05-04T11:43:25.802Z,40.67
2017-05-04T11:45:54.876Z,37.82
2017-05-04T11:48:22.822Z,36.63
2017-05-04T11:50:50.680Z,36.25
2017-05-04T11:53:18.562Z,36.35
2017-05-04T11:55:46.427Z,31.93
2017-05-04T11:58:14.303Z,36.22
2017-05-04T12:00:42.164Z,37.40
2017-05-04T12:03:10.048Z,36.83
2017-05-04T12:05:38.279Z,35.17
2017-05-04T12:08:06.140Z,34.78
2017-05-04T12:10:33.619Z,38.55
2017-05-04T12:13:01.499Z,36.80
2017-05-04T12:15:28.963Z,33.23
2017-05-04T12:17:56.851Z,32.88
2017-05-04T12:20:24.317Z,32.80
2017-05-04T12:22:52.199Z,33.25
2017-05-04T12:25:20.058Z,32.25
2017-05-04T12:27:48.051Z,35.93
2017-05-04T12:30:15.914Z,30.85
2017-05-04T12:32:44.444Z,31.82
2017-05-04T12:35:12.372Z,31.53
2017-05-04T12:37:40.253Z,30.08
2017-05-04T12:40:07.899Z,31.43
2017-05-04T12:42:35.778Z,29.27
2017-05-04T12:45:03.245Z,28.90
2017-05-04T12:47:31.124Z,30.50
2017-05-04T12:49:58.621Z,32.08
2017-05-04T12:52:26.487Z,35.12
2017-05-04T12:54:54.362Z,38.35
2017-05-04T12:57:22.383Z,40.58
2017-05-04T12:59:50.327Z,38.85
2017-05-04T13:02:18.210Z,38.47
2017-05-04T13:04:46.577Z,36.65
2017-05-04T13:07:15.083Z,32.58
2017-05-04T13:09:43.480Z,30.40
2017-05-04T13:12:11.427Z,31.43
2017-05-04T13:14:39.666Z,31.52
2017-05-04T13:17:08.043Z,30.03
2017-05-04T13:19:36.435Z,26.15
2017-05-04T13:22:05.267Z,25.53
2017-05-04T13:24:33.360Z,27.30
2017-05-04T13:27:01.736Z,26.22
2017-05-04T13:29:29.679Z,28.00
2017-05-04T13:31:57.756Z,27.02
2017-05-04T13:34:26.247Z,26.97
2017-05-04T13:36:54.702Z,28.45
2017-05-04T13:39:22.903Z,28.55
2017-05-04T13:41:51.306Z,27.80
2017-05-04T13:44:19.243Z,29.92
2017-05-04T13:46:47.217Z,28.88
2017-05-04T13:49:15.676Z,27.88
2017-05-04T13:51:43.691Z,28.30
2017-05-04T13:54:11.827Z,29.02
2017-05-04T13:56:39.364Z,30.00
2017-05-04T13:59:07.260Z,28.87
2017-05-04T14:01:34.758Z,27.10
2017-05-04T14:04:03.301Z,27.63
2017-05-04T14:06:31.690Z,24.38
2017-05-04T14:09:00.019Z,23.85
2017-05-04T14:11:28.378Z,26.22
2017-05-04T14:13:56.071Z,27.92
2017-05-04T14:16:24.026Z,29.07
2017-05-04T14:18:51.898Z,29.75
2017-05-04T14:21:19.776Z,30.70
2017-05-04T14:23:47.726Z,30.52
2017-05-04T14:26:15.385Z,29.73
2017-05-04T14:28:43.312Z,30.97
2017-05-04T14:31:12.005Z,29.93
2017-05-04T14:33:39.970Z,30.28
2017-05-04T14:36:07.948Z,31.87
2017-05-04T14:38:36.167Z,28.50
2017-05-04T14:41:04.582Z,31.22
2017-05-04T14:43:33.096Z,31.70
2017-05-04T14:46:00.929Z,33.83
2017-05-04T14:48:28.851Z,33.97
2017-05-04T14:50:56.719Z,35.95
2017-05-04T14:53:24.600Z,32.95
2017-05-04T14:55:52.070Z,31.48
2017-05-04T14:58:19.547Z,27.22
2017-05-04T15:00:47.823Z,23.22
2017-05-04T15:03:15.309Z,22.97
2017-05-04T15:05:43.207Z,18.88
2017-05-04T15:08:11.228Z,14.67
2017-05-04T15:10:39.096Z,12.45
2017-05-04T15:13:06.975Z,14.70
2017-05-04T15:15:34.910Z,13.23
2017-05-04T15:18:02.421Z,12.43
2017-05-04T15:20:30.280Z,11.40
2017-05-04T15:22:58.170Z,9.15
2017-05-04T15:25:26.049Z,11.02
2017-05-04T15:27:53.549Z,14.60
2017-05-04T15:30:21.885Z,16.33
2017-05-04T15:32:50.157Z,17.90
2017-05-04T15:35:18.063Z,20.18
2017-05-04T15:37:45.966Z,22.02
2017-05-04T15:40:14.111Z,23.55
2017-05-04T15:42:42.391Z,26.63
2017-05-04T15:45:10.542Z,26.60
2017-05-04T15:47:39.340Z,28.83
2017-05-04T15:50:07.560Z,27.83
2017-05-04T15:52:35.938Z,31.22
2017-05-04T15:55:04.009Z,31.88
2017-05-04T15:57:32.305Z,31.67
2017-05-04T16:00:00.440Z,32.22
2017-05-04T16:02:28.292Z,29.72
2017-05-04T16:04:56.693Z,29.28
2017-05-04T16:07:24.831Z,31.78
2017-05-04T16:09:54.552Z,30.38
2017-05-04T16:12:22.450Z,30.85
2017-05-04T16:14:50.327Z,30.15
2017-05-04T16:17:18.594Z,29.13
2017-05-04T16:19:46.479Z,33.17
2017-05-04T16:22:13.979Z,30.52
2017-05-04T16:24:41.857Z,30.72
2017-05-04T16:27:09.772Z,31.85
2017-05-04T16:29:37.659Z,28.32
2017-05-04T16:32:05.552Z,28.93
2017-05-04T16:34:33.424Z,28.98
2017-05-04T16:37:01.313Z,31.00
2017-05-04T16:39:29.192Z,27.45
2017-05-04T16:41:57.457Z,29.88
2017-05-04T16:44:25.332Z,31.53
2017-05-04T16:46:53.843Z,27.42
2017-05-04T16:49:21.321Z,29.25
2017-05-04T16:51:49.228Z,27.18
2017-05-04T16:54:17.468Z,28.85
2017-05-04T16:56:45.940Z,26.07
2017-05-04T16:59:13.419Z,28.22
2017-05-04T17:01:40.972Z,26.02
2017-05-04T17:04:08.852Z,27.17
2017-05-04T17:06:36.748Z,27.87
2017-05-04T17:09:04.632Z,26.85
2017-05-04T17:11:32.527Z,27.33
2017-05-04T17:14:00.400Z,26.43
2017-05-04T17:16:28.283Z,26.12
2017-05-04T17:18:55.755Z,26.97
2017-05-04T17:21:23.784Z,24.68
2017-05-04T17:23:51.268Z,27.07
2017-05-04T17:26:19.147Z,24.78
2017-05-04T17:28:47.119Z,26.30
2017-05-04T17:31:17.469Z,24.95
2017-05-04T17:33:58.797Z,24.57
2017-05-04T17:36:33.302Z,24.30
2017-05-04T17:39:02.859Z,23.70
2017-05-04T17:41:31.725Z,20.33
2017-05-04T17:44:00.538Z,20.15
2017-05-04T17:46:29.402Z,18.97
2017-05-04T17:49:06.933Z,19.22
2017-05-04T17:51:34.834Z,18.85
2017-05-04T17:54:02.694Z,18.20
2017-05-04T17:56:30.577Z,16.48
2017-05-04T17:58:59.238Z,16.80
2017-05-04T18:01:27.127Z,15.90
2017-05-04T18:03:54.991Z,16.68
2017-05-04T18:06:22.957Z,15.05
2017-05-04T18:08:50.439Z,17.07
2017-05-04T18:11:18.319Z,15.70
2017-05-04T18:13:46.186Z,14.98
2017-05-04T18:16:14.215Z,15.57
2017-05-04T18:18:41.679Z,14.73
2017-05-04T18:21:09.754Z,14.17
2017-05-04T18:23:37.708Z,13.78
2017-05-04T18:26:05.643Z,13.82
2017-05-04T18:28:33.503Z,13.77
2017-05-04T18:31:01.351Z,15.60
2017-05-04T18:33:29.234Z,14.43
2017-05-04T18:35:57.133Z,13.72
2017-05-04T18:38:25.129Z,13.55
2017-05-04T18:40:53.276Z,14.58
2017-05-04T18:43:21.323Z,13.77
2017-05-04T18:45:49.735Z,13.27
2017-05-04T18:48:17.535Z,13.67
2017-05-04T18:50:45.554Z,13.62
2017-05-04T18:53:13.534Z,15.38
2017-05-04T18:55:41.566Z,13.82
2017-05-04T18:58:09.699Z,15.72
2017-05-04T19:00:37.286Z,15.27
2017-05-04T19:03:05.392Z,14.52
2017-05-04T19:05:33.301Z,15.60
2017-05-04T19:08:02.055Z,15.53
2017-05-04T19:10:29.639Z,15.43
2017-05-04T19:12:57.708Z,16.37
2017-05-04T19:15:25.631Z,14.82
2017-05-04T19:17:53.455Z,14.85
2017-05-04T19:20:21.438Z,16.03
2017-05-04T19:22:49.294Z,15.72
2017-05-04T19:25:17.292Z,16.33
2017-05-04T19:27:45.658Z,15.50
2017-05-04T19:30:13.969Z,16.48
2017-05-04T19:32:41.841Z,15.87
2017-05-04T19:35:09.900Z,17.22
2017-05-04T19:37:37.644Z,16.27
2017-05-04T19:40:06.051Z,17.85
2017-05-04T19:42:33.515Z,16.25
2017-05-04T19:45:01.196Z,17.68
2017-05-04T19:47:29.548Z,17.68
2017-05-04T19:49:58.121Z,17.82
2017-05-04T19:52:25.984Z,18.40
2017-05-04T19:54:53.863Z,18.68
2017-05-04T19:57:21.579Z,16.88
2017-05-04T19:59:49.488Z,18.80
2017-05-04T20:02:17.456Z,18.53
2017-05-04T20:04:45.386Z,18.50
2017-05-04T20:07:14.415Z,18.50
2017-05-04T20:09:42.378Z,20.10
2017-05-04T20:12:10.243Z,19.80
2017-05-04T20:14:38.118Z,20.25
2017-05-04T20:17:05.618Z,20.83
2017-05-04T20:19:33.500Z,20.88
2017-05-04T20:22:01.747Z,20.22
2017-05-04T20:24:29.919Z,22.02
2017-05-04T20:26:57.843Z,21.22
2017-05-04T20:29:25.387Z,21.28
2017-05-04T20:31:54.035Z,22.47
2017-05-04T20:34:22.018Z,22.20
2017-05-04T20:36:50.173Z,21.78
2017-05-04T20:39:18.199Z,22.43
2017-05-04T20:41:46.027Z,22.12
2017-05-04T20:44:13.517Z,23.35
2017-05-04T20:46:41.787Z,22.02
2017-05-04T20:49:09.283Z,24.77
2017-05-04T20:51:36.755Z,22.42
2017-05-04T20:54:05.303Z,23.42
2017-05-04T20:56:33.171Z,21.08
2017-05-04T20:59:01.174Z,24.38
2017-05-04T21:01:29.302Z,23.02
2017-05-04T21:03:58.028Z,21.20
2017-05-04T21:06:25.890Z,21.53
2017-05-04T21:08:53.407Z,21.37
2017-05-04T21:11:21.688Z,21.38
2017-05-04T21:13:49.902Z,20.83
2017-05-04T21:16:18.044Z,20.82
2017-05-04T21:18:45.907Z,20.02
2017-05-04T21:21:13.766Z,20.53
2017-05-04T21:23:42.005Z,19.42
2017-05-04T21:26:11.168Z,19.68
2017-05-04T21:28:40.027Z,18.17
2017-05-04T21:31:07.893Z,18.90
2017-05-04T21:33:35.559Z,18.58
2017-05-04T21:36:03.613Z,17.65
2017-05-04T21:38:31.895Z,16.47
2017-05-04T21:40:59.362Z,16.97
2017-05-04T21:43:27.246Z,16.60
2017-05-04T21:45:55.367Z,17.22
2017-05-04T21:48:23.719Z,15.77
2017-05-04T21:50:51.599Z,15.98
2017-05-04T21:53:19.483Z,15.93
2017-05-04T21:55:47.343Z,17.87
2017-05-04T21:58:15.226Z,17.88
2017-05-04T22:00:43.089Z,15.77
2017-05-04T22:03:11.473Z,18.05
2017-05-04T22:05:39.495Z,17.62
2017-05-04T22:08:08.222Z,16.43
2017-05-04T22:10:36.792Z,17.30
2017-05-04T22:13:04.950Z,17.27
2017-05-04T22:15:33.242Z,16.60
2017-05-04T22:18:01.138Z,16.13
2017-05-04T22:20:29.505Z,16.28
2017-05-04T22:22:58.050Z,16.92
2017-05-04T22:25:26.309Z,16.27
2017-05-04T22:27:54.145Z,17.37
2017-05-04T22:30:22.501Z,15.93
2017-05-04T22:32:50.239Z,16.98
2017-05-04T22:35:18.967Z,16.72
2017-05-04T22:37:47.604Z,15.93
2017-05-04T22:40:15.086Z,16.75
2017-05-04T22:42:42.639Z,15.33
2017-05-04T22:45:10.519Z,14.93
2017-05-04T22:47:38.510Z,14.37
2017-05-04T22:50:06.083Z,14.22
2017-05-04T22:52:34.479Z,15.13
2017-05-04T22:55:03.144Z,15.78
2017-05-04T22:57:31.022Z,14.32
2017-05-04T22:59:58.975Z,15.33
2017-05-04T23:02:26.839Z,15.05
2017-05-04T23:04:54.323Z,14.58
2017-05-04T23:07:22.196Z,14.38
2017-05-04T23:09:50.070Z,14.98
2017-05-04T23:12:17.922Z,14.88
2017-05-04T23:14:45.810Z,15.53
2017-05-04T23:17:13.675Z,14.67
2017-05-04T23:19:41.551Z,15.22
2017-05-04T23:22:09.414Z,15.65
2017-05-04T23:24:37.284Z,15.28
2017-05-04T23:27:05.144Z,15.70
2017-05-04T23:29:33.019Z,14.33
2017-05-04T23:32:00.875Z,15.02
2017-05-04T23:34:28.754Z,15.03
2017-05-04T23:36:56.608Z,16.35
2017-05-04T23:39:24.462Z,14.82
2017-05-04T23:41:52.334Z,15.10
2017-05-04T23:44:20.202Z,14.68
2017-05-04T23:46:48.061Z,15.35
2017-05-04T23:49:15.522Z,15.15
2017-05-04T23:51:43.394Z,14.92
2017-05-04T23:54:11.272Z,14.80
2017-05-04T23:56:39.132Z,15.10
2017-05-04T23:59:07.017Z,14.47
